sensor_id;sensor_type;location;lat;lon;timestamp;P1;durP1;ratioP1;P2;durP2;ratioP2
15194;SDS011;7698;42.478;23.756;2022-10-03T00:00:09;1.88;;;1.77;;
15194;SDS011;7698;42.478;23.756;2022-10-03T00:02:40;1.92;;;1.83;;
15194;SDS011;7698;42.478;23.756;2022-10-03T00:08:01;3.97;;;2.58;;
15194;SDS011;7698;42.478;23.756;2022-10-03T00:10:32;2.17;;;2.08;;
15194;SDS011;7698;42.478;23.756;2022-10-03T00:13:02;2.92;;;2.58;;
15194;SDS011;7698;42.478;23.756;2022-10-03T00:15:33;2.70;;;2.50;;
15194;SDS011;7698;42.478;23.756;2022-10-03T00:18:04;2.40;;;2.20;;
15194;SDS011;7698;42.478;23.756;2022-10-03T00:20:37;2.67;;;2.47;;
15194;SDS011;7698;42.478;23.756;2022-10-03T00:23:08;2.67;;;2.42;;
15194;SDS011;7698;42.478;23.756;2022-10-03T00:25:38;2.97;;;2.03;;
15194;SDS011;7698;42.478;23.756;2022-10-03T00:28:09;2.83;;;2.00;;
15194;SDS011;7698;42.478;23.756;2022-10-03T00:30:54;2.08;;;1.95;;
15194;SDS011;7698;42.478;23.756;2022-10-03T00:33:23;2.17;;;1.95;;
15194;SDS011;7698;42.478;23.756;2022-10-03T00:35:55;1.60;;;1.50;;
15194;SDS011;7698;42.478;23.756;2022-10-03T00:38:30;1.60;;;1.50;;
15194;SDS011;7698;42.478;23.756;2022-10-03T00:41:05;1.60;;;1.08;;
15194;SDS011;7698;42.478;23.756;2022-10-03T00:43:43;1.98;;;1.77;;
15194;SDS011;7698;42.478;23.756;2022-10-03T00:46:18;2.78;;;1.30;;
15194;SDS011;7698;42.478;23.756;2022-10-03T00:49:09;1.35;;;1.25;;
15194;SDS011;7698;42.478;23.756;2022-10-03T00:51:42;0.90;;;0.90;;
15194;SDS011;7698;42.478;23.756;2022-10-03T00:54:16;1.70;;;1.60;;
15194;SDS011;7698;42.478;23.756;2022-10-03T00:56:53;2.95;;;2.05;;
15194;SDS011;7698;42.478;23.756;2022-10-03T00:59:26;2.15;;;2.05;;
15194;SDS011;7698;42.478;23.756;2022-10-03T01:01:56;2.83;;;2.63;;
15194;SDS011;7698;42.478;23.756;2022-10-03T01:04:29;2.90;;;2.60;;
15194;SDS011;7698;42.478;23.756;2022-10-03T01:07:05;2.78;;;2.22;;
15194;SDS011;7698;42.478;23.756;2022-10-03T01:09:41;3.55;;;2.50;;
15194;SDS011;7698;42.478;23.756;2022-10-03T01:12:18;2.47;;;2.28;;
15194;SDS011;7698;42.478;23.756;2022-10-03T01:14:55;2.55;;;2.35;;
15194;SDS011;7698;42.478;23.756;2022-10-03T01:17:26;1.90;;;1.80;;
15194;SDS011;7698;42.478;23.756;2022-10-03T01:20:05;2.45;;;1.63;;
15194;SDS011;7698;42.478;23.756;2022-10-03T01:25:18;2.03;;;1.60;;
15194;SDS011;7698;42.478;23.756;2022-10-03T01:27:49;2.22;;;1.25;;
15194;SDS011;7698;42.478;23.756;2022-10-03T01:30:40;1.33;;;1.23;;
15194;SDS011;7698;42.478;23.756;2022-10-03T01:33:08;1.23;;;1.15;;
15194;SDS011;7698;42.478;23.756;2022-10-03T01:35:38;1.10;;;1.00;;
15194;SDS011;7698;42.478;23.756;2022-10-03T01:38:10;2.72;;;1.02;;
15194;SDS011;7698;42.478;23.756;2022-10-03T01:40:38;1.20;;;1.10;;
15194;SDS011;7698;42.478;23.756;2022-10-03T01:43:08;1.23;;;1.13;;
15194;SDS011;7698;42.478;23.756;2022-10-03T01:45:43;1.27;;;1.27;;
15194;SDS011;7698;42.478;23.756;2022-10-03T01:48:16;1.33;;;1.23;;
15194;SDS011;7698;42.478;23.756;2022-10-03T01:50:47;5.80;;;1.77;;
15194;SDS011;7698;42.478;23.756;2022-10-03T01:53:18;1.65;;;1.55;;
15194;SDS011;7698;42.478;23.756;2022-10-03T01:55:50;2.47;;;2.28;;
15194;SDS011;7698;42.478;23.756;2022-10-03T01:58:22;2.10;;;2.00;;
15194;SDS011;7698;42.478;23.756;2022-10-03T02:00:55;2.15;;;1.95;;
15194;SDS011;7698;42.478;23.756;2022-10-03T02:03:24;1.70;;;1.60;;
15194;SDS011;7698;42.478;23.756;2022-10-03T02:05:53;2.33;;;1.58;;
15194;SDS011;7698;42.478;23.756;2022-10-03T02:08:25;1.85;;;1.75;;
15194;SDS011;7698;42.478;23.756;2022-10-03T02:10:55;2.15;;;2.03;;
15194;SDS011;7698;42.478;23.756;2022-10-03T02:13:27;2.05;;;1.92;;
15194;SDS011;7698;42.478;23.756;2022-10-03T02:16:01;1.90;;;1.80;;
15194;SDS011;7698;42.478;23.756;2022-10-03T02:18:33;1.90;;;1.80;;
15194;SDS011;7698;42.478;23.756;2022-10-03T02:21:05;1.65;;;1.55;;
15194;SDS011;7698;42.478;23.756;2022-10-03T02:23:37;1.52;;;1.42;;
15194;SDS011;7698;42.478;23.756;2022-10-03T02:26:10;1.42;;;1.20;;
15194;SDS011;7698;42.478;23.756;2022-10-03T02:28:46;2.20;;;1.80;;
15194;SDS011;7698;42.478;23.756;2022-10-03T02:34:14;1.67;;;1.58;;
15194;SDS011;7698;42.478;23.756;2022-10-03T02:36:52;2.13;;;1.55;;
15194;SDS011;7698;42.478;23.756;2022-10-03T02:39:45;2.45;;;1.75;;
15194;SDS011;7698;42.478;23.756;2022-10-03T02:42:21;1.88;;;1.77;;
15194;SDS011;7698;42.478;23.756;2022-10-03T02:44:57;1.50;;;1.40;;
15194;SDS011;7698;42.478;23.756;2022-10-03T02:50:35;1.80;;;1.67;;
15194;SDS011;7698;42.478;23.756;2022-10-03T02:53:23;2.10;;;1.90;;
15194;SDS011;7698;42.478;23.756;2022-10-03T02:59:09;2.55;;;2.35;;
15194;SDS011;7698;42.478;23.756;2022-10-03T03:12:53;2.80;;;2.60;;
15194;SDS011;7698;42.478;23.756;2022-10-03T03:18:11;3.13;;;2.42;;
15194;SDS011;7698;42.478;23.756;2022-10-03T03:20:49;2.17;;;1.98;;
15194;SDS011;7698;42.478;23.756;2022-10-03T03:26:23;3.15;;;2.00;;
15194;SDS011;7698;42.478;23.756;2022-10-03T03:28:56;4.28;;;2.67;;
15194;SDS011;7698;42.478;23.756;2022-10-03T03:31:27;2.67;;;2.58;;
15194;SDS011;7698;42.478;23.756;2022-10-03T03:33:57;3.63;;;3.33;;
15194;SDS011;7698;42.478;23.756;2022-10-03T03:36:30;3.75;;;3.50;;
15194;SDS011;7698;42.478;23.756;2022-10-03T03:39:01;3.90;;;3.60;;
15194;SDS011;7698;42.478;23.756;2022-10-03T03:41:31;3.95;;;3.65;;
15194;SDS011;7698;42.478;23.756;2022-10-03T03:44:17;3.75;;;3.50;;
15194;SDS011;7698;42.478;23.756;2022-10-03T03:46:50;4.57;;;4.18;;
15194;SDS011;7698;42.478;23.756;2022-10-03T03:49:27;4.22;;;3.92;;
15194;SDS011;7698;42.478;23.756;2022-10-03T03:51:59;5.10;;;4.57;;
15194;SDS011;7698;42.478;23.756;2022-10-03T03:54:36;4.43;;;4.13;;
15194;SDS011;7698;42.478;23.756;2022-10-03T04:00:00;4.80;;;4.40;;
15194;SDS011;7698;42.478;23.756;2022-10-03T04:02:32;4.85;;;4.30;;
15194;SDS011;7698;42.478;23.756;2022-10-03T04:05:07;4.00;;;3.70;;
15194;SDS011;7698;42.478;23.756;2022-10-03T04:07:44;5.07;;;4.68;;
15194;SDS011;7698;42.478;23.756;2022-10-03T04:10:20;4.28;;;3.97;;
15194;SDS011;7698;42.478;23.756;2022-10-03T04:15:47;3.97;;;3.67;;
15194;SDS011;7698;42.478;23.756;2022-10-03T04:18:27;3.67;;;3.38;;
15194;SDS011;7698;42.478;23.756;2022-10-03T04:21:16;3.55;;;3.17;;
15194;SDS011;7698;42.478;23.756;2022-10-03T04:23:52;2.90;;;2.55;;
15194;SDS011;7698;42.478;23.756;2022-10-03T04:26:35;2.85;;;2.38;;
15194;SDS011;7698;42.478;23.756;2022-10-03T04:29:14;2.67;;;2.42;;
15194;SDS011;7698;42.478;23.756;2022-10-03T04:31:48;2.72;;;2.53;;
15194;SDS011;7698;42.478;23.756;2022-10-03T04:34:20;2.25;;;2.13;;
15194;SDS011;7698;42.478;23.756;2022-10-03T04:37:01;2.40;;;2.28;;
15194;SDS011;7698;42.478;23.756;2022-10-03T04:39:34;2.90;;;2.70;;
15194;SDS011;7698;42.478;23.756;2022-10-03T04:42:02;2.25;;;2.15;;
15194;SDS011;7698;42.478;23.756;2022-10-03T04:44:35;2.45;;;2.25;;
15194;SDS011;7698;42.478;23.756;2022-10-03T04:47:07;3.63;;;2.50;;
15194;SDS011;7698;42.478;23.756;2022-10-03T04:49:41;2.88;;;2.60;;
15194;SDS011;7698;42.478;23.756;2022-10-03T04:52:16;2.40;;;2.15;;
15194;SDS011;7698;42.478;23.756;2022-10-03T04:54:45;3.45;;;2.60;;
15194;SDS011;7698;42.478;23.756;2022-10-03T04:57:19;3.20;;;2.90;;
15194;SDS011;7698;42.478;23.756;2022-10-03T04:59:48;4.43;;;3.03;;
15194;SDS011;7698;42.478;23.756;2022-10-03T05:02:27;4.63;;;4.32;;
15194;SDS011;7698;42.478;23.756;2022-10-03T05:05:02;6.35;;;5.85;;
15194;SDS011;7698;42.478;23.756;2022-10-03T05:07:36;5.90;;;5.50;;
15194;SDS011;7698;42.478;23.756;2022-10-03T05:10:16;11.52;;;10.52;;
15194;SDS011;7698;42.478;23.756;2022-10-03T05:12:46;22.58;;;20.63;;
15194;SDS011;7698;42.478;23.756;2022-10-03T05:15:17;13.68;;;12.13;;
15194;SDS011;7698;42.478;23.756;2022-10-03T05:17:47;10.48;;;9.52;;
15194;SDS011;7698;42.478;23.756;2022-10-03T05:20:22;9.25;;;8.52;;
15194;SDS011;7698;42.478;23.756;2022-10-03T05:22:53;6.28;;;5.70;;
15194;SDS011;7698;42.478;23.756;2022-10-03T05:25:23;5.88;;;4.68;;
15194;SDS011;7698;42.478;23.756;2022-10-03T05:27:56;4.32;;;3.75;;
15194;SDS011;7698;42.478;23.756;2022-10-03T05:30:28;4.28;;;3.88;;
15194;SDS011;7698;42.478;23.756;2022-10-03T05:33:02;3.30;;;2.97;;
15194;SDS011;7698;42.478;23.756;2022-10-03T05:35:35;4.03;;;3.20;;
15194;SDS011;7698;42.478;23.756;2022-10-03T05:38:13;5.47;;;2.75;;
15194;SDS011;7698;42.478;23.756;2022-10-03T05:40:46;3.00;;;2.80;;
15194;SDS011;7698;42.478;23.756;2022-10-03T05:43:23;3.20;;;3.00;;
15194;SDS011;7698;42.478;23.756;2022-10-03T05:45:52;4.05;;;3.75;;
15194;SDS011;7698;42.478;23.756;2022-10-03T05:48:29;3.65;;;3.35;;
15194;SDS011;7698;42.478;23.756;2022-10-03T05:54:04;3.45;;;3.25;;
15194;SDS011;7698;42.478;23.756;2022-10-03T05:56:42;3.47;;;3.20;;
15194;SDS011;7698;42.478;23.756;2022-10-03T05:59:33;3.33;;;3.13;;
15194;SDS011;7698;42.478;23.756;2022-10-03T06:04:55;3.67;;;3.35;;
15194;SDS011;7698;42.478;23.756;2022-10-03T06:07:26;2.92;;;2.72;;
15194;SDS011;7698;42.478;23.756;2022-10-03T06:12:41;2.88;;;2.67;;
15194;SDS011;7698;42.478;23.756;2022-10-03T06:15:14;3.63;;;2.80;;
15194;SDS011;7698;42.478;23.756;2022-10-03T06:17:48;3.10;;;2.80;;
15194;SDS011;7698;42.478;23.756;2022-10-03T06:20:24;2.90;;;2.70;;
15194;SDS011;7698;42.478;23.756;2022-10-03T06:23:01;3.47;;;2.25;;
15194;SDS011;7698;42.478;23.756;2022-10-03T06:25:55;2.42;;;2.22;;
15194;SDS011;7698;42.478;23.756;2022-10-03T06:34:09;2.65;;;2.45;;
15194;SDS011;7698;42.478;23.756;2022-10-03T06:45:33;4.82;;;3.78;;
15194;SDS011;7698;42.478;23.756;2022-10-03T06:48:18;6.47;;;5.88;;
15194;SDS011;7698;42.478;23.756;2022-10-03T06:50:52;5.20;;;4.70;;
15194;SDS011;7698;42.478;23.756;2022-10-03T06:53:31;3.78;;;3.38;;
15194;SDS011;7698;42.478;23.756;2022-10-03T06:59:01;4.38;;;3.30;;
15194;SDS011;7698;42.478;23.756;2022-10-03T07:15:46;2.95;;;1.35;;
15194;SDS011;7698;42.478;23.756;2022-10-03T07:23:43;1.75;;;1.15;;
15194;SDS011;7698;42.478;23.756;2022-10-03T07:26:21;2.88;;;1.35;;
15194;SDS011;7698;42.478;23.756;2022-10-03T07:29:08;1.85;;;1.42;;
15194;SDS011;7698;42.478;23.756;2022-10-03T07:31:43;2.65;;;1.60;;
15194;SDS011;7698;42.478;23.756;2022-10-03T07:34:30;1.83;;;1.17;;
15194;SDS011;7698;42.478;23.756;2022-10-03T07:37:08;1.65;;;1.23;;
15194;SDS011;7698;42.478;23.756;2022-10-03T07:39:59;2.17;;;1.33;;
15194;SDS011;7698;42.478;23.756;2022-10-03T07:42:43;4.15;;;1.67;;
15194;SDS011;7698;42.478;23.756;2022-10-03T07:45:31;2.65;;;1.60;;
15194;SDS011;7698;42.478;23.756;2022-10-03T07:48:14;3.13;;;1.15;;
15194;SDS011;7698;42.478;23.756;2022-10-03T07:50:49;1.92;;;1.10;;
15194;SDS011;7698;42.478;23.756;2022-10-03T07:53:21;3.38;;;1.10;;
15194;SDS011;7698;42.478;23.756;2022-10-03T07:55:53;3.10;;;1.42;;
15194;SDS011;7698;42.478;23.756;2022-10-03T07:58:31;2.00;;;1.50;;
15194;SDS011;7698;42.478;23.756;2022-10-03T08:01:07;3.15;;;1.33;;
15194;SDS011;7698;42.478;23.756;2022-10-03T08:06:23;3.38;;;1.67;;
15194;SDS011;7698;42.478;23.756;2022-10-03T08:09:03;6.53;;;1.73;;
15194;SDS011;7698;42.478;23.756;2022-10-03T08:11:37;3.25;;;2.13;;
15194;SDS011;7698;42.478;23.756;2022-10-03T08:14:16;4.93;;;1.92;;
15194;SDS011;7698;42.478;23.756;2022-10-03T08:19:27;2.58;;;1.70;;
15194;SDS011;7698;42.478;23.756;2022-10-03T08:22:03;1.45;;;1.20;;
15194;SDS011;7698;42.478;23.756;2022-10-03T08:24:34;2.47;;;1.50;;
15194;SDS011;7698;42.478;23.756;2022-10-03T08:27:15;2.50;;;1.63;;
15194;SDS011;7698;42.478;23.756;2022-10-03T08:29:52;4.00;;;1.92;;
15194;SDS011;7698;42.478;23.756;2022-10-03T08:40:58;3.90;;;1.77;;
15194;SDS011;7698;42.478;23.756;2022-10-03T08:43:35;5.05;;;1.95;;
15194;SDS011;7698;42.478;23.756;2022-10-03T08:46:08;4.13;;;2.00;;
15194;SDS011;7698;42.478;23.756;2022-10-03T08:48:42;3.50;;;1.73;;
15194;SDS011;7698;42.478;23.756;2022-10-03T08:53:55;1.42;;;1.30;;
15194;SDS011;7698;42.478;23.756;2022-10-03T08:56:31;1.90;;;1.70;;
15194;SDS011;7698;42.478;23.756;2022-10-03T08:59:05;3.78;;;2.25;;
15194;SDS011;7698;42.478;23.756;2022-10-03T09:01:34;3.15;;;1.92;;
15194;SDS011;7698;42.478;23.756;2022-10-03T09:06:52;1.85;;;1.70;;
15194;SDS011;7698;42.478;23.756;2022-10-03T09:09:30;2.92;;;1.90;;
15194;SDS011;7698;42.478;23.756;2022-10-03T09:14:53;2.13;;;1.40;;
15194;SDS011;7698;42.478;23.756;2022-10-03T09:17:35;2.90;;;1.73;;
15194;SDS011;7698;42.478;23.756;2022-10-03T09:20:10;3.50;;;1.73;;
15194;SDS011;7698;42.478;23.756;2022-10-03T09:22:53;3.47;;;2.13;;
15194;SDS011;7698;42.478;23.756;2022-10-03T09:25:30;2.45;;;1.70;;
15194;SDS011;7698;42.478;23.756;2022-10-03T09:30:52;2.67;;;1.55;;
15194;SDS011;7698;42.478;23.756;2022-10-03T09:33:36;2.00;;;1.52;;
15194;SDS011;7698;42.478;23.756;2022-10-03T09:39:10;2.92;;;1.85;;
15194;SDS011;7698;42.478;23.756;2022-10-03T09:41:48;4.65;;;2.05;;
15194;SDS011;7698;42.478;23.756;2022-10-03T09:47:06;4.05;;;2.15;;
15194;SDS011;7698;42.478;23.756;2022-10-03T09:52:43;3.08;;;2.67;;
15194;SDS011;7698;42.478;23.756;2022-10-03T09:55:28;3.80;;;2.33;;
15194;SDS011;7698;42.478;23.756;2022-10-03T09:57:59;2.67;;;2.20;;
15194;SDS011;7698;42.478;23.756;2022-10-03T10:00:30;2.83;;;2.38;;
15194;SDS011;7698;42.478;23.756;2022-10-03T10:03:21;3.25;;;2.20;;
15194;SDS011;7698;42.478;23.756;2022-10-03T10:06:05;3.28;;;2.50;;
15194;SDS011;7698;42.478;23.756;2022-10-03T10:08:40;3.70;;;2.60;;
15194;SDS011;7698;42.478;23.756;2022-10-03T10:11:20;2.30;;;2.10;;
15194;SDS011;7698;42.478;23.756;2022-10-03T10:16:39;3.92;;;2.40;;
15194;SDS011;7698;42.478;23.756;2022-10-03T10:19:14;3.13;;;1.90;;
15194;SDS011;7698;42.478;23.756;2022-10-03T10:21:58;2.05;;;1.73;;
15194;SDS011;7698;42.478;23.756;2022-10-03T10:24:39;2.15;;;1.70;;
15194;SDS011;7698;42.478;23.756;2022-10-03T10:30:19;1.80;;;1.70;;
15194;SDS011;7698;42.478;23.756;2022-10-03T10:38:27;2.08;;;1.98;;
15194;SDS011;7698;42.478;23.756;2022-10-03T10:52:02;1.70;;;1.27;;
15194;SDS011;7698;42.478;23.756;2022-10-03T11:00:19;1.30;;;1.20;;
15194;SDS011;7698;42.478;23.756;2022-10-03T11:05:39;1.27;;;1.20;;
15194;SDS011;7698;42.478;23.756;2022-10-03T11:08:16;1.55;;;0.90;;
15194;SDS011;7698;42.478;23.756;2022-10-03T11:10:54;1.30;;;1.02;;
15194;SDS011;7698;42.478;23.756;2022-10-03T11:16:35;1.25;;;0.98;;
15194;SDS011;7698;42.478;23.756;2022-10-03T11:19:34;2.75;;;1.00;;
15194;SDS011;7698;42.478;23.756;2022-10-03T11:22:12;1.08;;;0.90;;
15194;SDS011;7698;42.478;23.756;2022-10-03T11:38:53;1.05;;;0.80;;
15194;SDS011;7698;42.478;23.756;2022-10-03T11:41:26;0.75;;;0.75;;
15194;SDS011;7698;42.478;23.756;2022-10-03T11:46:57;0.95;;;0.90;;
15194;SDS011;7698;42.478;23.756;2022-10-03T11:49:39;1.08;;;1.00;;
15194;SDS011;7698;42.478;23.756;2022-10-03T11:52:15;1.38;;;0.80;;
15194;SDS011;7698;42.478;23.756;2022-10-03T11:54:46;1.00;;;0.90;;
15194;SDS011;7698;42.478;23.756;2022-10-03T11:57:15;0.70;;;0.70;;
15194;SDS011;7698;42.478;23.756;2022-10-03T11:59:56;0.60;;;0.60;;
15194;SDS011;7698;42.478;23.756;2022-10-03T12:02:32;0.95;;;0.90;;
15194;SDS011;7698;42.478;23.756;2022-10-03T12:05:05;0.70;;;0.70;;
15194;SDS011;7698;42.478;23.756;2022-10-03T12:07:37;0.82;;;0.60;;
15194;SDS011;7698;42.478;23.756;2022-10-03T12:10:28;0.70;;;0.70;;
15194;SDS011;7698;42.478;23.756;2022-10-03T12:12:58;0.73;;;0.73;;
15194;SDS011;7698;42.478;23.756;2022-10-03T12:15:31;0.80;;;0.80;;
15194;SDS011;7698;42.478;23.756;2022-10-03T12:18:02;0.95;;;0.95;;
15194;SDS011;7698;42.478;23.756;2022-10-03T12:20:32;0.93;;;0.93;;
15194;SDS011;7698;42.478;23.756;2022-10-03T12:23:05;1.50;;;0.85;;
15194;SDS011;7698;42.478;23.756;2022-10-03T12:25:35;1.25;;;1.20;;
15194;SDS011;7698;42.478;23.756;2022-10-03T12:28:08;1.52;;;1.42;;
15194;SDS011;7698;42.478;23.756;2022-10-03T12:30:40;1.95;;;1.55;;
15194;SDS011;7698;42.478;23.756;2022-10-03T12:33:14;2.95;;;1.52;;
15194;SDS011;7698;42.478;23.756;2022-10-03T12:35:46;2.00;;;1.90;;
15194;SDS011;7698;42.478;23.756;2022-10-03T12:38:19;1.98;;;1.88;;
15194;SDS011;7698;42.478;23.756;2022-10-03T12:40:51;1.88;;;1.60;;
15194;SDS011;7698;42.478;23.756;2022-10-03T12:43:24;2.38;;;2.17;;
15194;SDS011;7698;42.478;23.756;2022-10-03T12:45:59;3.70;;;2.25;;
15194;SDS011;7698;42.478;23.756;2022-10-03T12:48:32;2.28;;;2.17;;
15194;SDS011;7698;42.478;23.756;2022-10-03T12:51:03;2.42;;;2.22;;
15194;SDS011;7698;42.478;23.756;2022-10-03T12:53:35;2.50;;;2.30;;
15194;SDS011;7698;42.478;23.756;2022-10-03T12:56:18;3.10;;;2.90;;
15194;SDS011;7698;42.478;23.756;2022-10-03T12:58:49;2.60;;;2.28;;
15194;SDS011;7698;42.478;23.756;2022-10-03T13:01:20;3.72;;;2.60;;
15194;SDS011;7698;42.478;23.756;2022-10-03T13:03:50;2.42;;;2.33;;
15194;SDS011;7698;42.478;23.756;2022-10-03T13:06:22;1.95;;;1.85;;
15194;SDS011;7698;42.478;23.756;2022-10-03T13:08:52;2.10;;;2.00;;
15194;SDS011;7698;42.478;23.756;2022-10-03T13:11:27;2.05;;;1.95;;
15194;SDS011;7698;42.478;23.756;2022-10-03T13:14:03;2.40;;;2.30;;
15194;SDS011;7698;42.478;23.756;2022-10-03T13:16:32;2.65;;;2.42;;
15194;SDS011;7698;42.478;23.756;2022-10-03T13:19:02;2.45;;;2.25;;
15194;SDS011;7698;42.478;23.756;2022-10-03T13:24:18;2.10;;;2.00;;
15194;SDS011;7698;42.478;23.756;2022-10-03T13:26:51;2.30;;;2.20;;
15194;SDS011;7698;42.478;23.756;2022-10-03T13:29:20;2.33;;;2.13;;
15194;SDS011;7698;42.478;23.756;2022-10-03T13:32:00;2.25;;;2.15;;
15194;SDS011;7698;42.478;23.756;2022-10-03T13:34:29;2.97;;;2.67;;
15194;SDS011;7698;42.478;23.756;2022-10-03T13:36:58;2.28;;;2.17;;
15194;SDS011;7698;42.478;23.756;2022-10-03T13:39:32;2.17;;;2.08;;
15194;SDS011;7698;42.478;23.756;2022-10-03T13:42:07;2.55;;;2.40;;
15194;SDS011;7698;42.478;23.756;2022-10-03T13:44:36;2.33;;;2.22;;
15194;SDS011;7698;42.478;23.756;2022-10-03T13:47:07;3.03;;;2.10;;
15194;SDS011;7698;42.478;23.756;2022-10-03T13:49:42;2.58;;;2.42;;
15194;SDS011;7698;42.478;23.756;2022-10-03T13:52:14;2.45;;;2.17;;
15194;SDS011;7698;42.478;23.756;2022-10-03T13:54:51;2.60;;;2.13;;
15194;SDS011;7698;42.478;23.756;2022-10-03T13:57:24;2.90;;;2.70;;
15194;SDS011;7698;42.478;23.756;2022-10-03T13:59:57;2.60;;;2.40;;
15194;SDS011;7698;42.478;23.756;2022-10-03T14:02:33;3.65;;;3.10;;
15194;SDS011;7698;42.478;23.756;2022-10-03T14:05:19;3.13;;;2.83;;
15194;SDS011;7698;42.478;23.756;2022-10-03T14:07:51;2.97;;;2.78;;
15194;SDS011;7698;42.478;23.756;2022-10-03T14:13:10;2.10;;;1.90;;
15194;SDS011;7698;42.478;23.756;2022-10-03T14:15:43;3.70;;;2.28;;
15194;SDS011;7698;42.478;23.756;2022-10-03T14:18:18;3.00;;;2.80;;
15194;SDS011;7698;42.478;23.756;2022-10-03T14:23:45;2.25;;;2.05;;
15194;SDS011;7698;42.478;23.756;2022-10-03T14:26:16;2.30;;;2.17;;
15194;SDS011;7698;42.478;23.756;2022-10-03T14:28:48;2.60;;;2.10;;
15194;SDS011;7698;42.478;23.756;2022-10-03T14:31:16;2.88;;;2.15;;
15194;SDS011;7698;42.478;23.756;2022-10-03T14:33:45;1.90;;;1.80;;
15194;SDS011;7698;42.478;23.756;2022-10-03T14:36:21;4.03;;;2.13;;
15194;SDS011;7698;42.478;23.756;2022-10-03T14:38:57;1.90;;;1.80;;
15194;SDS011;7698;42.478;23.756;2022-10-03T14:41:45;2.25;;;2.15;;
15194;SDS011;7698;42.478;23.756;2022-10-03T14:44:17;3.15;;;2.90;;
15194;SDS011;7698;42.478;23.756;2022-10-03T14:46:46;2.78;;;2.58;;
15194;SDS011;7698;42.478;23.756;2022-10-03T14:49:16;1.92;;;1.83;;
15194;SDS011;7698;42.478;23.756;2022-10-03T14:51:46;1.98;;;1.77;;
15194;SDS011;7698;42.478;23.756;2022-10-03T14:54:16;1.92;;;1.83;;
15194;SDS011;7698;42.478;23.756;2022-10-03T14:56:44;1.90;;;1.80;;
15194;SDS011;7698;42.478;23.756;2022-10-03T14:59:12;1.63;;;1.40;;
15194;SDS011;7698;42.478;23.756;2022-10-03T15:01:47;2.33;;;2.13;;
15194;SDS011;7698;42.478;23.756;2022-10-03T15:04:16;2.85;;;2.63;;
15194;SDS011;7698;42.478;23.756;2022-10-03T15:06:48;3.22;;;2.00;;
15194;SDS011;7698;42.478;23.756;2022-10-03T15:09:19;2.53;;;1.58;;
15194;SDS011;7698;42.478;23.756;2022-10-03T15:11:47;4.32;;;1.80;;
15194;SDS011;7698;42.478;23.756;2022-10-03T15:14:16;1.90;;;1.42;;
15194;SDS011;7698;42.478;23.756;2022-10-03T15:16:44;3.25;;;1.75;;
15194;SDS011;7698;42.478;23.756;2022-10-03T15:19:14;1.80;;;1.50;;
15194;SDS011;7698;42.478;23.756;2022-10-03T15:21:43;1.70;;;1.60;;
15194;SDS011;7698;42.478;23.756;2022-10-03T15:24:12;1.60;;;1.50;;
15194;SDS011;7698;42.478;23.756;2022-10-03T15:26:43;2.63;;;1.55;;
15194;SDS011;7698;42.478;23.756;2022-10-03T15:29:15;1.65;;;1.55;;
15194;SDS011;7698;42.478;23.756;2022-10-03T15:31:43;1.50;;;1.40;;
15194;SDS011;7698;42.478;23.756;2022-10-03T15:34:14;4.18;;;1.90;;
15194;SDS011;7698;42.478;23.756;2022-10-03T15:36:41;1.90;;;1.70;;
15194;SDS011;7698;42.478;23.756;2022-10-03T15:39:16;2.45;;;1.85;;
15194;SDS011;7698;42.478;23.756;2022-10-03T15:41:48;2.20;;;1.45;;
15194;SDS011;7698;42.478;23.756;2022-10-03T15:44:16;1.80;;;1.70;;
15194;SDS011;7698;42.478;23.756;2022-10-03T15:46:46;1.55;;;1.40;;
15194;SDS011;7698;42.478;23.756;2022-10-03T15:49:16;3.90;;;1.92;;
15194;SDS011;7698;42.478;23.756;2022-10-03T15:51:45;2.42;;;2.10;;
15194;SDS011;7698;42.478;23.756;2022-10-03T15:54:13;2.53;;;1.63;;
15194;SDS011;7698;42.478;23.756;2022-10-03T15:56:42;1.83;;;1.73;;
15194;SDS011;7698;42.478;23.756;2022-10-03T15:59:14;1.83;;;1.60;;
15194;SDS011;7698;42.478;23.756;2022-10-03T16:01:44;1.55;;;1.45;;
15194;SDS011;7698;42.478;23.756;2022-10-03T16:04:16;2.33;;;1.60;;
15194;SDS011;7698;42.478;23.756;2022-10-03T16:06:45;1.45;;;1.35;;
15194;SDS011;7698;42.478;23.756;2022-10-03T16:09:15;1.52;;;1.42;;
15194;SDS011;7698;42.478;23.756;2022-10-03T16:11:45;1.58;;;1.33;;
15194;SDS011;7698;42.478;23.756;2022-10-03T16:14:17;1.67;;;1.58;;
15194;SDS011;7698;42.478;23.756;2022-10-03T16:16:49;2.65;;;2.20;;
15194;SDS011;7698;42.478;23.756;2022-10-03T16:19:28;2.50;;;2.30;;
15194;SDS011;7698;42.478;23.756;2022-10-03T16:22:09;2.17;;;1.92;;
15194;SDS011;7698;42.478;23.756;2022-10-03T16:24:39;2.88;;;1.50;;
15194;SDS011;7698;42.478;23.756;2022-10-03T16:27:09;4.63;;;1.75;;
15194;SDS011;7698;42.478;23.756;2022-10-03T16:29:37;1.60;;;1.50;;
15194;SDS011;7698;42.478;23.756;2022-10-03T16:32:06;1.58;;;1.48;;
15194;SDS011;7698;42.478;23.756;2022-10-03T16:34:34;1.88;;;1.55;;
15194;SDS011;7698;42.478;23.756;2022-10-03T16:37:02;1.70;;;1.60;;
15194;SDS011;7698;42.478;23.756;2022-10-03T16:39:32;1.90;;;1.80;;
15194;SDS011;7698;42.478;23.756;2022-10-03T16:41:59;2.25;;;1.60;;
15194;SDS011;7698;42.478;23.756;2022-10-03T16:44:37;1.40;;;1.30;;
15194;SDS011;7698;42.478;23.756;2022-10-03T16:47:04;1.60;;;1.50;;
15194;SDS011;7698;42.478;23.756;2022-10-03T16:49:34;1.38;;;1.27;;
15194;SDS011;7698;42.478;23.756;2022-10-03T16:52:20;1.30;;;1.27;;
15194;SDS011;7698;42.478;23.756;2022-10-03T16:54:48;3.28;;;1.70;;
15194;SDS011;7698;42.478;23.756;2022-10-03T16:57:25;1.67;;;1.45;;
15194;SDS011;7698;42.478;23.756;2022-10-03T16:59:52;1.80;;;1.20;;
15194;SDS011;7698;42.478;23.756;2022-10-03T17:02:20;1.77;;;1.50;;
15194;SDS011;7698;42.478;23.756;2022-10-03T17:04:48;1.77;;;1.30;;
15194;SDS011;7698;42.478;23.756;2022-10-03T17:07:17;1.30;;;1.20;;
15194;SDS011;7698;42.478;23.756;2022-10-03T17:09:49;2.05;;;1.50;;
15194;SDS011;7698;42.478;23.756;2022-10-03T17:12:17;1.75;;;1.60;;
15194;SDS011;7698;42.478;23.756;2022-10-03T17:14:45;2.85;;;1.38;;
15194;SDS011;7698;42.478;23.756;2022-10-03T17:17:20;1.50;;;1.33;;
15194;SDS011;7698;42.478;23.756;2022-10-03T17:19:49;1.40;;;1.30;;
15194;SDS011;7698;42.478;23.756;2022-10-03T17:22:19;1.58;;;1.42;;
15194;SDS011;7698;42.478;23.756;2022-10-03T17:24:50;1.50;;;1.40;;
15194;SDS011;7698;42.478;23.756;2022-10-03T17:27:19;1.27;;;1.17;;
15194;SDS011;7698;42.478;23.756;2022-10-03T17:29:49;1.60;;;1.50;;
15194;SDS011;7698;42.478;23.756;2022-10-03T17:32:21;1.50;;;1.40;;
15194;SDS011;7698;42.478;23.756;2022-10-03T17:34:50;2.03;;;1.25;;
15194;SDS011;7698;42.478;23.756;2022-10-03T17:37:34;1.42;;;1.33;;
15194;SDS011;7698;42.478;23.756;2022-10-03T17:40:10;2.25;;;1.85;;
15194;SDS011;7698;42.478;23.756;2022-10-03T17:42:39;1.42;;;1.33;;
15194;SDS011;7698;42.478;23.756;2022-10-03T17:45:17;1.60;;;1.50;;
15194;SDS011;7698;42.478;23.756;2022-10-03T17:47:49;1.70;;;1.60;;
15194;SDS011;7698;42.478;23.756;2022-10-03T17:50:19;1.90;;;1.70;;
15194;SDS011;7698;42.478;23.756;2022-10-03T17:52:47;2.00;;;1.90;;
15194;SDS011;7698;42.478;23.756;2022-10-03T17:55:19;1.77;;;1.65;;
15194;SDS011;7698;42.478;23.756;2022-10-03T17:57:47;1.60;;;1.50;;
15194;SDS011;7698;42.478;23.756;2022-10-03T18:00:16;1.70;;;1.50;;
15194;SDS011;7698;42.478;23.756;2022-10-03T18:02:44;1.65;;;1.55;;
15194;SDS011;7698;42.478;23.756;2022-10-03T18:05:16;1.90;;;1.80;;
15194;SDS011;7698;42.478;23.756;2022-10-03T18:07:43;2.08;;;1.40;;
15194;SDS011;7698;42.478;23.756;2022-10-03T18:10:21;2.30;;;1.98;;
15194;SDS011;7698;42.478;23.756;2022-10-03T18:12:49;1.90;;;1.70;;
15194;SDS011;7698;42.478;23.756;2022-10-03T18:15:30;2.08;;;1.80;;
15194;SDS011;7698;42.478;23.756;2022-10-03T18:20:46;1.70;;;1.55;;
15194;SDS011;7698;42.478;23.756;2022-10-03T18:23:17;2.33;;;1.77;;
15194;SDS011;7698;42.478;23.756;2022-10-03T18:25:53;1.73;;;1.63;;